Time;durP1;ratioP1;P1;durP2;ratioP2;P2;SDS_P1;SDS_P2;PMS_P1;PMS_P2;Temp;Humidity;BMP_temperature;BMP_pressure;BME280_temperature;BME280_humidity;BME280_pressure;Samples;Min_cycle;Max_cycle;Signal;HPM_P1;HPM_P2
2023/03/28 00:01:40;;;;;;;3.88;1.75;;;;;;;5.20;39.47;102215.25;5045521;28;20677;-78
2023/03/28 00:04:10;;;;;;;3.60;1.33;;;;;;;5.18;39.35;102213.53;5036148;28;20533;-78
2023/03/28 00:06:40;;;;;;;4.50;1.63;;;;;;;5.17;39.37;102223.50;5051313;28;20044;-79
2023/03/28 00:09:09;;;;;;;4.40;1.40;;;;;;;5.16;39.51;102223.53;5052994;28;20037;-78
2023/03/28 00:11:38;;;;;;;3.47;1.42;;;;;;;5.15;39.45;102228.06;5042513;28;20551;-78
2023/03/28 00:14:07;;;;;;;5.20;1.75;;;;;;;5.14;39.35;102226.31;5035787;28;20095;-79
2023/03/28 00:16:38;;;;;;;4.63;1.70;;;;;;;5.13;39.41;102238.09;5044360;28;20060;-78
2023/03/28 00:19:10;;;;;;;8.27;1.80;;;;;;;5.13;39.43;102237.25;5043644;28;20095;-77
2023/03/28 00:21:40;;;;;;;4.20;1.75;;;;;;;5.10;39.80;102229.22;5038997;28;20041;-78
2023/03/28 00:24:12;;;;;;;3.38;1.70;;;;;;;5.10;39.65;102232.84;5059775;28;20136;-78
2023/03/28 00:26:41;;;;;;;5.38;2.15;;;;;;;5.09;39.34;102232.88;5052199;28;20042;-78
2023/03/28 00:29:14;;;;;;;5.45;1.90;;;;;;;5.10;39.73;102237.38;5034807;28;20916;-78
2023/03/28 00:31:42;;;;;;;8.48;2.08;;;;;;;5.05;39.70;102226.69;5038676;28;20065;-79
2023/03/28 00:34:12;;;;;;;3.88;1.90;;;;;;;5.08;39.54;102237.44;5040698;28;20495;-79
2023/03/28 00:36:40;;;;;;;4.97;2.10;;;;;;;5.07;39.50;102240.19;5049289;28;20529;-79
2023/03/28 00:39:10;;;;;;;5.47;2.22;;;;;;;5.03;39.58;102242.19;5053834;28;20064;-79
2023/03/28 00:41:41;;;;;;;4.95;2.10;;;;;;;5.06;39.64;102243.88;5055844;28;20056;-79
2023/03/28 00:44:42;;;;;;;4.25;2.00;;;;;;;5.04;39.90;102243.94;5051429;28;20068;-79
2023/03/28 00:47:24;;;;;;;4.10;2.00;;;;;;;5.03;39.78;102246.72;5030211;28;20060;-78
2023/03/28 00:49:57;;;;;;;4.30;1.90;;;;;;;4.97;39.43;102247.84;5030203;28;20050;-78
2023/03/28 00:52:29;;;;;;;6.10;2.03;;;;;;;4.96;39.65;102245.22;5052676;28;20053;-78
2023/03/28 00:54:58;;;;;;;5.45;2.00;;;;;;;4.97;39.60;102244.25;5030225;28;20042;-79
2023/03/28 00:57:28;;;;;;;5.05;2.00;;;;;;;4.95;39.52;102240.75;5023713;28;20057;-78
2023/03/28 00:59:56;;;;;;;5.88;2.15;;;;;;;4.94;39.81;102242.56;5026472;28;21318;-79
2023/03/28 01:02:24;;;;;;;4.10;1.95;;;;;;;4.92;39.62;102245.34;5042360;28;20061;-78
2023/03/28 01:04:58;;;;;;;4.70;2.03;;;;;;;4.93;39.49;102238.97;5028252;28;20087;-79
2023/03/28 01:07:34;;;;;;;6.95;2.30;;;;;;;4.92;39.41;102239.91;5030384;28;20103;-79
2023/03/28 01:10:04;;;;;;;4.07;1.95;;;;;;;4.90;39.70;102249.06;5029223;28;20049;-78
2023/03/28 01:12:33;;;;;;;4.53;1.85;;;;;;;4.90;39.59;102246.34;5055250;28;20117;-78
2023/03/28 01:15:02;;;;;;;5.95;1.88;;;;;;;4.88;39.64;102245.56;5050260;28;20044;-79
2023/03/28 01:17:41;;;;;;;6.03;1.98;;;;;;;4.86;39.57;102248.31;5038962;28;20151;-78
2023/03/28 01:20:31;;;;;;;4.60;2.10;;;;;;;4.86;39.90;102242.91;5024270;28;20073;-79
2023/03/28 01:23:36;;;;;;;5.90;2.33;;;;;;;4.83;39.98;102242.13;5031563;28;20635;-80
2023/03/28 01:26:36;;;;;;;5.95;2.10;;;;;;;4.79;39.85;102243.22;5033647;28;20042;-79
2023/03/28 01:29:37;;;;;;;6.70;2.40;;;;;;;4.79;39.95;102237.78;5031951;28;20043;-78
2023/03/28 01:32:51;;;;;;;4.47;1.90;;;;;;;4.71;40.02;102235.41;5034161;28;20507;-79
2023/03/28 01:36:01;;;;;;;3.50;1.90;;;;;;;4.69;39.92;102240.00;5030935;28;20048;-79
2023/03/28 01:38:36;;;;;;;4.57;2.00;;;;;;;4.69;39.98;102233.69;4998360;28;20112;-78
2023/03/28 01:41:10;;;;;;;5.85;2.03;;;;;;;4.68;39.75;102234.63;5044421;28;20049;-79
2023/03/28 01:43:52;;;;;;;5.38;2.20;;;;;;;4.65;40.02;102230.19;5034915;28;20284;-78
2023/03/28 01:46:27;;;;;;;5.90;1.90;;;;;;;4.62;40.13;102227.63;5045560;28;20043;-80
2023/03/28 01:49:04;;;;;;;4.65;2.63;;;;;;;4.61;39.80;102222.28;5048784;28;20045;-79
2023/03/28 01:51:47;;;;;;;5.22;2.15;;;;;;;4.60;40.06;102223.22;5059565;28;20090;-79
2023/03/28 01:54:27;;;;;;;4.60;1.97;;;;;;;4.55;40.06;102229.69;5057275;28;20087;-79
2023/03/28 01:57:04;;;;;;;5.32;2.13;;;;;;;4.53;40.00;102228.00;5053290;28;20064;-79
2023/03/28 01:59:39;;;;;;;4.28;1.98;;;;;;;4.48;40.13;102217.34;5037058;28;20041;-80
2023/03/28 02:02:30;;;;;;;4.68;2.00;;;;;;;4.45;39.84;102220.19;5034272;28;20057;-79
2023/03/28 02:05:22;;;;;;;5.82;2.15;;;;;;;4.44;39.96;102220.25;5039316;28;20042;-80
2023/03/28 02:07:54;;;;;;;4.05;1.85;;;;;;;4.43;39.96;102219.38;5053627;28;20107;-79
2023/03/28 02:10:46;;;;;;;4.43;1.80;;;;;;;4.38;39.98;102218.69;5048705;28;20109;-79
2023/03/28 02:13:36;;;;;;;4.07;1.75;;;;;;;4.38;40.21;102221.38;5058560;28;20110;-79
2023/03/28 02:16:25;;;;;;;4.05;1.58;;;;;;;4.35;39.88;102213.38;5044412;28;20072;-79
2023/03/28 02:19:07;;;;;;;4.32;1.95;;;;;;;4.33;39.98;102215.25;5041348;28;20045;-79
2023/03/28 02:22:10;;;;;;;5.63;2.13;;;;;;;4.33;39.99;102215.25;5016501;28;20053;-79
2023/03/28 02:24:50;;;;;;;5.07;1.90;;;;;;;4.29;39.99;102221.75;5037603;28;20125;-80
2023/03/28 02:27:44;;;;;;;3.42;2.00;;;;;;;4.28;40.02;102219.97;5051654;28;20048;-79
2023/03/28 02:30:30;;;;;;;5.30;1.92;;;;;;;4.25;40.13;102216.50;5032959;28;20600;-79
2023/03/28 02:33:00;;;;;;;5.07;1.90;;;;;;;4.25;39.94;102211.97;5041850;28;20056;-80
2023/03/28 02:35:46;;;;;;;5.43;2.20;;;;;;;4.25;40.15;102214.66;5031223;28;20512;-79
2023/03/28 02:38:20;;;;;;;3.92;1.85;;;;;;;4.23;40.08;102221.09;5055210;28;20109;-80
2023/03/28 02:40:59;;;;;;;4.38;1.85;;;;;;;4.22;40.09;102214.81;5059227;28;20053;-78
2023/03/28 02:43:43;;;;;;;5.00;1.90;;;;;;;4.22;40.11;102217.53;5077378;28;20055;-80
2023/03/28 02:46:27;;;;;;;3.70;1.77;;;;;;;4.20;40.18;102222.13;5043060;28;20053;-80
2023/03/28 02:49:19;;;;;;;5.43;1.73;;;;;;;4.18;40.13;102207.72;5055346;28;20053;-80
2023/03/28 02:51:55;;;;;;;5.65;2.00;;;;;;;4.16;40.09;102217.75;5054495;28;20045;-80
2023/03/28 02:54:33;;;;;;;3.22;1.75;;;;;;;4.13;40.13;102207.94;5049579;28;20061;-79
2023/03/28 02:57:32;;;;;;;5.00;1.80;;;;;;;4.12;40.27;102218.81;5037907;28;20136;-79
2023/03/28 03:00:09;;;;;;;3.38;1.70;;;;;;;4.12;40.18;102213.41;5038347;28;20049;-79
2023/03/28 03:02:38;;;;;;;7.28;2.30;;;;;;;4.10;40.02;102218.00;5041335;28;20070;-79
2023/03/28 03:05:08;;;;;;;4.03;1.80;;;;;;;4.09;39.94;102213.50;5043990;28;20042;-79
2023/03/28 03:07:37;;;;;;;4.28;1.67;;;;;;;4.07;40.00;102207.25;5044223;28;20060;-80
2023/03/28 03:10:06;;;;;;;6.07;2.15;;;;;;;4.04;40.11;102211.00;5037385;28;20057;-78
2023/03/28 03:12:36;;;;;;;4.40;2.40;;;;;;;4.02;39.95;102211.97;5029653;28;20548;-78
2023/03/28 03:15:07;;;;;;;4.30;2.03;;;;;;;4.01;40.01;102212.91;5030060;28;20072;-78
2023/03/28 03:17:58;;;;;;;4.78;2.00;;;;;;;3.97;40.02;102211.28;5021896;28;20045;-79
2023/03/28 03:20:33;;;;;;;5.43;2.20;;;;;;;3.93;39.97;102213.22;5044081;28;20045;-79
2023/03/28 03:23:03;;;;;;;4.50;1.70;;;;;;;3.94;40.06;102215.00;5031934;28;20473;-78
2023/03/28 03:25:33;;;;;;;4.85;2.17;;;;;;;3.92;40.07;102218.69;5046637;28;20108;-77
2023/03/28 03:28:30;;;;;;;4.38;1.90;;;;;;;3.87;40.09;102218.88;5015461;28;20509;-79
2023/03/28 03:31:02;;;;;;;4.07;2.08;;;;;;;3.89;39.98;102224.25;5039528;28;20610;-78
2023/03/28 03:33:49;;;;;;;4.38;1.83;;;;;;;3.84;40.12;102216.28;5050634;28;20048;-78
2023/03/28 03:36:21;;;;;;;5.25;1.92;;;;;;;3.81;40.25;102229.06;5052341;28;20175;-79
2023/03/28 03:38:49;;;;;;;4.43;2.30;;;;;;;3.81;40.06;102229.97;5060469;28;20135;-79
2023/03/28 03:41:21;;;;;;;3.85;1.83;;;;;;;3.80;40.33;102228.19;5055173;28;20128;-79
2023/03/28 03:43:49;;;;;;;3.47;1.65;;;;;;;3.79;40.17;102231.81;5070575;28;20053;-79
2023/03/28 03:46:18;;;;;;;4.88;2.22;;;;;;;3.79;40.28;102231.81;5064520;28;20531;-79
2023/03/28 03:48:48;;;;;;;3.75;1.95;;;;;;;3.77;40.37;102231.88;5041610;28;20038;-79
2023/03/28 03:51:18;;;;;;;4.18;2.03;;;;;;;3.76;40.23;102231.94;5046348;28;20384;-78
2023/03/28 03:53:49;;;;;;;4.10;2.20;;;;;;;3.73;40.20;102234.75;5051278;28;20072;-78
2023/03/28 03:56:20;;;;;;;3.67;2.22;;;;;;;3.74;40.30;102236.50;5039474;28;20073;-78
2023/03/28 03:58:56;;;;;;;4.15;2.05;;;;;;;3.72;40.41;102235.72;5044025;28;20041;-78
2023/03/28 04:01:31;;;;;;;3.30;1.88;;;;;;;3.71;40.65;102250.19;5045048;28;20435;-79
2023/03/28 04:04:10;;;;;;;5.13;2.10;;;;;;;3.70;40.47;102243.88;5064035;28;20089;-78
2023/03/28 04:06:58;;;;;;;5.43;2.53;;;;;;;3.70;40.50;102246.59;5054770;28;20049;-79
2023/03/28 04:09:28;;;;;;;4.38;2.13;;;;;;;3.69;40.37;102252.94;5054886;28;20128;-78
2023/03/28 04:11:59;;;;;;;4.23;1.90;;;;;;;3.61;40.33;102249.63;5076142;28;20057;-80
2023/03/28 04:14:27;;;;;;;5.75;2.42;;;;;;;3.65;40.32;102251.28;5052176;28;20726;-79
2023/03/28 04:17:20;;;;;;;4.82;2.50;;;;;;;3.63;40.10;102246.88;5019229;28;20527;-80
2023/03/28 04:19:48;;;;;;;6.13;2.33;;;;;;;3.58;40.53;102244.31;5050788;28;20373;-79
2023/03/28 04:22:18;;;;;;;3.58;2.00;;;;;;;3.57;40.43;102249.78;5050411;28;20284;-79
2023/03/28 04:24:52;;;;;;;4.85;2.17;;;;;;;3.55;40.33;102249.88;5049251;28;20054;-79
2023/03/28 04:27:34;;;;;;;4.80;2.43;;;;;;;3.51;40.71;102248.19;5070660;28;20041;-80
2023/03/28 04:30:03;;;;;;;4.78;2.40;;;;;;;3.50;40.46;102246.41;5068408;28;20422;-77
2023/03/28 04:32:57;;;;;;;5.43;2.50;;;;;;;3.48;40.52;102244.72;5037492;28;20076;-79
2023/03/28 04:35:28;;;;;;;5.55;2.28;;;;;;;3.45;40.47;102243.00;5069999;28;20132;-79
2023/03/28 04:37:57;;;;;;;3.90;2.20;;;;;;;3.44;40.51;102245.75;5053302;28;20396;-80
2023/03/28 04:40:28;;;;;;;5.00;2.58;;;;;;;3.43;40.60;102244.88;5068969;28;20054;-78
2023/03/28 04:43:12;;;;;;;3.80;2.15;;;;;;;3.39;40.51;102246.81;5055135;28;20045;-79
2023/03/28 04:45:46;;;;;;;6.00;2.58;;;;;;;3.39;40.54;102251.34;5036227;28;20094;-79
2023/03/28 04:48:18;;;;;;;5.35;2.45;;;;;;;3.40;40.69;102248.56;5050896;28;20044;-79
2023/03/28 04:50:47;;;;;;;6.22;2.40;;;;;;;3.38;40.53;102247.75;5049694;28;20052;-79
2023/03/28 04:53:16;;;;;;;6.20;2.53;;;;;;;3.35;40.69;102245.16;5054598;28;20047;-79
2023/03/28 04:56:02;;;;;;;5.70;2.90;;;;;;;3.32;40.61;102256.06;5035554;28;20053;-80
2023/03/28 04:58:32;;;;;;;4.97;2.28;;;;;;;3.30;40.50;102246.22;5044538;28;20382;-79
2023/03/28 05:01:02;;;;;;;6.43;2.72;;;;;;;3.29;40.51;102264.28;5040560;28;20045;-79
2023/03/28 05:03:54;;;;;;;4.43;2.25;;;;;;;3.23;40.31;102260.91;5040584;28;20072;-79
2023/03/28 05:06:24;;;;;;;5.63;2.67;;;;;;;3.23;40.21;102260.91;5045225;28;20095;-79
2023/03/28 05:08:52;;;;;;;5.32;2.83;;;;;;;3.23;40.63;102267.22;5052238;28;20403;-79
2023/03/28 05:11:25;;;;;;;4.47;2.60;;;;;;;3.19;40.40;102270.94;5039733;28;20073;-80
2023/03/28 05:13:53;;;;;;;6.35;2.85;;;;;;;3.17;40.78;102262.00;5040965;28;20034;-81
2023/03/28 05:16:32;;;;;;;4.65;2.30;;;;;;;3.18;40.59;102274.59;5048787;28;20064;-81
2023/03/28 05:19:21;;;;;;;5.97;2.75;;;;;;;3.15;40.96;102280.13;5054708;28;20120;-79
2023/03/28 05:22:09;;;;;;;6.25;2.70;;;;;;;3.11;40.86;102270.31;5056915;28;20578;-80
2023/03/28 05:24:41;;;;;;;5.18;2.60;;;;;;;3.10;40.64;102278.47;5065758;28;20505;-81
2023/03/28 05:27:16;;;;;;;6.13;2.40;;;;;;;3.08;40.71;102278.53;5054884;28;20048;-78
2023/03/28 05:29:49;;;;;;;5.82;2.80;;;;;;;3.08;40.89;102280.34;5045290;28;20061;-81
2023/03/28 05:32:18;;;;;;;4.47;2.65;;;;;;;3.05;40.83;102275.94;5042924;28;20432;-80
2023/03/28 05:34:48;;;;;;;5.88;2.70;;;;;;;3.05;40.93;102278.66;5037796;28;20116;-80
2023/03/28 05:37:16;;;;;;;6.60;3.15;;;;;;;3.01;40.70;102277.84;5042307;28;20655;-79
2023/03/28 05:39:54;;;;;;;5.72;2.95;;;;;;;2.99;40.82;102285.13;5064762;28;20042;-79
2023/03/28 05:42:22;;;;;;;7.05;3.10;;;;;;;2.98;40.95;102280.69;5047329;28;20580;-80
2023/03/28 05:44:51;;;;;;;6.43;3.17;;;;;;;2.98;40.98;102279.81;5051162;28;20101;-80
2023/03/28 05:47:35;;;;;;;5.07;3.15;;;;;;;2.96;41.09;102284.38;5072749;28;20049;-79
2023/03/28 05:50:07;;;;;;;6.72;2.95;;;;;;;2.96;40.96;102278.97;5067543;28;21219;-80
2023/03/28 05:52:35;;;;;;;5.88;3.25;;;;;;;2.96;41.08;102284.38;5070463;28;20041;-80
2023/03/28 05:55:07;;;;;;;6.10;3.47;;;;;;;2.96;40.99;102281.66;5070775;28;20057;-80
2023/03/28 05:57:35;;;;;;;8.07;3.33;;;;;;;2.95;41.37;102290.72;5074657;28;20053;-80
2023/03/28 06:00:13;;;;;;;7.30;3.75;;;;;;;2.95;41.28;102283.47;5075491;28;20105;-80
2023/03/28 06:02:53;;;;;;;8.02;3.60;;;;;;;2.93;41.51;102287.16;5050458;28;20045;-79
2023/03/28 06:05:40;;;;;;;8.50;3.67;;;;;;;2.97;41.89;102283.44;5062992;28;20045;-82
2023/03/28 06:08:17;;;;;;;6.82;3.10;;;;;;;2.95;41.67;102286.19;5042857;28;20042;-80
2023/03/28 06:10:45;;;;;;;5.65;2.90;;;;;;;2.96;41.79;102293.38;5042531;28;20053;-81
2023/03/28 06:13:20;;;;;;;5.38;3.15;;;;;;;2.98;41.76;102291.50;5057380;28;20121;-81
2023/03/28 06:15:48;;;;;;;8.45;3.58;;;;;;;3.04;41.95;102295.81;5049282;28;20033;-81
2023/03/28 06:18:18;;;;;;;7.97;4.10;;;;;;;3.08;42.03;102299.28;5043251;28;20706;-81
2023/03/28 06:20:50;;;;;;;7.22;3.35;;;;;;;3.14;42.17;102308.09;5045354;28;20103;-81
2023/03/28 06:23:18;;;;;;;6.63;3.20;;;;;;;3.22;42.30;102315.97;5053118;28;20398;-80
2023/03/28 06:25:46;;;;;;;6.70;3.60;;;;;;;3.28;42.52;102315.75;5057140;28;20813;-80
2023/03/28 06:28:17;;;;;;;6.15;3.70;;;;;;;3.35;42.57;102315.50;5039111;28;20104;-81
2023/03/28 06:31:04;;;;;;;6.68;3.63;;;;;;;3.41;42.49;102300.88;5037262;28;20056;-81
2023/03/28 06:33:32;;;;;;;6.07;3.55;;;;;;;3.53;42.48;102310.41;5050923;28;20068;-81
2023/03/28 06:36:02;;;;;;;8.70;4.05;;;;;;;3.58;42.35;102303.88;5045502;28;20136;-80
2023/03/28 06:38:36;;;;;;;6.35;3.60;;;;;;;3.67;42.38;102317.09;5030773;28;20042;-80
2023/03/28 06:41:06;;;;;;;5.72;3.45;;;;;;;3.72;42.64;102325.06;5039265;28;20049;-78
2023/03/28 06:43:35;;;;;;;7.90;4.03;;;;;;;3.83;42.72;102324.66;5070949;28;20045;-80
2023/03/28 06:46:29;;;;;;;7.60;3.58;;;;;;;3.88;42.53;102328.97;5043948;28;20049;-78
2023/03/28 06:48:57;;;;;;;7.85;3.95;;;;;;;3.97;42.37;102328.66;5037599;28;20095;-78
2023/03/28 06:51:29;;;;;;;7.82;3.50;;;;;;;4.08;42.79;102326.41;5044116;28;20500;-78
2023/03/28 06:53:57;;;;;;;9.25;3.80;;;;;;;4.12;42.79;102319.94;5036904;28;20675;-78
2023/03/28 06:56:29;;;;;;;6.60;3.47;;;;;;;4.20;42.96;102319.66;5043353;28;20079;-78
2023/03/28 06:58:59;;;;;;;5.78;3.65;;;;;;;4.32;43.22;102323.72;5056714;28;20059;-80
2023/03/28 07:01:32;;;;;;;6.15;3.65;;;;;;;4.42;43.43;102322.41;5054033;28;20049;-81
2023/03/28 07:04:10;;;;;;;7.15;3.60;;;;;;;4.49;43.56;102318.53;5060844;28;20045;-79
2023/03/28 07:06:41;;;;;;;7.90;3.72;;;;;;;4.66;43.42;102321.47;5055789;28;20137;-80
2023/03/28 07:09:09;;;;;;;8.40;4.03;;;;;;;4.79;43.86;102328.19;5038195;28;20043;-80
2023/03/28 07:11:45;;;;;;;6.32;3.85;;;;;;;4.92;43.70;102324.00;5033898;28;20056;-78
2023/03/28 07:14:13;;;;;;;6.53;3.60;;;;;;;5.09;43.74;102323.31;5051598;28;20045;-79
2023/03/28 07:16:41;;;;;;;8.45;3.78;;;;;;;5.26;44.06;102325.38;5048743;28;20041;-78
2023/03/28 07:19:10;;;;;;;6.97;3.53;;;;;;;5.45;43.76;102328.19;5060915;28;20048;-79
2023/03/28 07:21:43;;;;;;;7.43;3.63;;;;;;;5.70;43.65;102322.59;5067317;28;20041;-82
2023/03/28 07:24:11;;;;;;;6.70;3.38;;;;;;;5.91;43.94;102333.38;5055589;28;20084;-80
2023/03/28 07:26:50;;;;;;;5.53;3.40;;;;;;;6.12;43.77;102327.94;5058650;28;20044;-81
2023/03/28 07:29:28;;;;;;;5.90;3.33;;;;;;;6.32;43.94;102319.72;5059563;28;20047;-81
2023/03/28 07:31:56;;;;;;;7.80;3.20;;;;;;;6.58;43.89;102335.69;5010813;28;20055;-80
2023/03/28 07:34:25;;;;;;;5.95;3.08;;;;;;;6.82;43.60;102340.00;5030458;28;20049;-78
2023/03/28 07:36:55;;;;;;;5.90;3.20;;;;;;;7.08;42.93;102335.13;5031868;28;20506;-79
2023/03/28 07:39:56;;;;;;;5.15;3.10;;;;;;;7.31;43.44;102331.25;5003393;28;20046;-78
2023/03/28 07:42:26;;;;;;;6.70;3.28;;;;;;;7.56;42.85;102335.34;5052553;28;20056;-78
2023/03/28 07:44:55;;;;;;;7.03;3.58;;;;;;;7.77;42.57;102330.63;5053633;28;20099;-80
2023/03/28 07:47:22;;;;;;;5.65;3.15;;;;;;;7.97;42.08;102337.75;5054345;28;20061;-78
2023/03/28 07:49:51;;;;;;;6.55;3.25;;;;;;;8.15;41.83;102339.53;5040049;28;20037;-78
2023/03/28 07:52:26;;;;;;;5.13;2.97;;;;;;;8.33;41.46;102348.56;5050995;28;20049;-77
2023/03/28 07:54:55;;;;;;;7.10;3.08;;;;;;;8.46;41.30;102341.47;5039070;28;20506;-79
2023/03/28 07:57:23;;;;;;;6.60;3.08;;;;;;;8.57;40.96;102336.31;5053600;28;20498;-79
2023/03/28 07:59:51;;;;;;;5.22;2.95;;;;;;;8.67;40.63;102337.53;5067061;28;20049;-79
2023/03/28 08:02:23;;;;;;;6.63;3.25;;;;;;;8.76;39.42;102344.31;5063722;28;20419;-79
2023/03/28 08:04:52;;;;;;;5.70;3.17;;;;;;;8.80;40.04;102353.22;5060799;28;20049;-81
2023/03/28 08:07:27;;;;;;;5.60;2.92;;;;;;;8.86;39.21;102351.03;5034040;28;20045;-80
2023/03/28 08:09:55;;;;;;;6.53;3.00;;;;;;;8.87;39.45;102352.78;5043760;28;20045;-79
2023/03/28 08:12:28;;;;;;;7.55;3.08;;;;;;;8.91;39.01;102354.38;5051622;28;20060;-78
2023/03/28 08:14:56;;;;;;;7.47;3.05;;;;;;;8.92;38.72;102361.59;5043393;28;20476;-79
2023/03/28 08:17:25;;;;;;;6.68;3.28;;;;;;;8.93;38.59;102357.00;5034962;28;20139;-80
2023/03/28 08:19:54;;;;;;;7.75;3.30;;;;;;;8.91;38.72;102351.66;5045546;28;20038;-80
2023/03/28 08:22:22;;;;;;;5.80;3.20;;;;;;;8.93;38.72;102354.28;5044765;28;20068;-78
2023/03/28 08:25:17;;;;;;;7.55;3.25;;;;;;;8.92;38.19;102361.59;5003839;28;20053;-80
2023/03/28 08:27:46;;;;;;;6.13;3.22;;;;;;;8.90;38.03;102360.81;5065685;28;20049;-78
2023/03/28 08:30:14;;;;;;;5.47;2.88;;;;;;;8.90;38.32;102354.47;5043423;28;20049;-78
2023/03/28 08:32:49;;;;;;;6.65;2.92;;;;;;;8.88;38.18;102360.00;5045578;28;20351;-79
2023/03/28 08:35:18;;;;;;;6.55;3.55;;;;;;;8.89;38.21;102358.16;5043891;28;20098;-80
2023/03/28 08:37:50;;;;;;;6.78;3.00;;;;;;;8.89;38.01;102353.59;5049010;28;20045;-80
2023/03/28 08:40:22;;;;;;;5.45;3.05;;;;;;;8.90;38.04;102354.47;5033097;28;20045;-77
2023/03/28 08:43:05;;;;;;;6.37;3.33;;;;;;;8.89;37.37;102355.44;5063561;28;20510;-78
2023/03/28 08:45:50;;;;;;;4.65;2.50;;;;;;;8.89;37.13;102355.44;5046711;28;20111;-80
2023/03/28 08:48:22;;;;;;;7.40;3.25;;;;;;;8.91;37.69;102353.50;5050591;28;20054;-79
2023/03/28 08:50:55;;;;;;;6.65;2.72;;;;;;;8.91;37.45;102354.38;5038609;28;20067;-79
2023/03/28 08:53:29;;;;;;;4.95;2.60;;;;;;;8.93;37.14;102354.28;5062943;28;20059;-80
2023/03/28 08:56:01;;;;;;;6.13;2.50;;;;;;;8.94;37.60;102351.47;5052683;28;20071;-78
2023/03/28 08:58:34;;;;;;;6.85;2.70;;;;;;;8.95;37.75;102342.31;5073698;28;20041;-80
2023/03/28 09:01:03;;;;;;;5.57;2.30;;;;;;;8.93;37.58;102346.97;5067544;28;20053;-81
2023/03/28 09:03:35;;;;;;;6.30;2.55;;;;;;;8.98;37.38;102341.25;5040470;28;20164;-80
2023/03/28 09:06:19;;;;;;;6.50;2.58;;;;;;;8.99;37.20;102346.63;5040847;28;20041;-79
2023/03/28 09:09:15;;;;;;;4.55;2.30;;;;;;;8.99;37.28;102348.50;5016826;28;20051;-79
2023/03/28 09:11:57;;;;;;;5.35;2.20;;;;;;;9.03;36.54;102347.31;5021291;28;20050;-80
2023/03/28 09:14:49;;;;;;;4.75;2.20;;;;;;;9.04;36.29;102341.78;5048546;28;20124;-81
2023/03/28 09:17:26;;;;;;;5.70;2.30;;;;;;;9.03;36.84;102340.00;5078777;28;20102;-80
2023/03/28 09:20:11;;;;;;;5.43;2.08;;;;;;;9.03;36.88;102340.00;5072484;28;20054;-79
2023/03/28 09:23:35;;;;;;;4.35;2.05;;;;;;;9.01;36.31;102333.75;5050253;28;20073;-80
2023/03/28 09:26:35;;;;;;;3.95;1.50;;;;;;;8.98;37.03;102325.75;5048286;28;20041;-80
2023/03/28 09:29:13;;;;;;;3.40;1.33;;;;;;;8.98;36.09;102331.22;5057824;28;20051;-79
2023/03/28 09:31:46;;;;;;;4.97;1.90;;;;;;;8.94;35.72;102318.69;5061461;28;20033;-79
2023/03/28 09:34:21;;;;;;;3.88;1.40;;;;;;;8.93;36.15;102310.59;5061951;28;20048;-78
2023/03/28 09:36:56;;;;;;;5.18;1.30;;;;;;;8.92;36.60;102319.75;5070251;28;20401;-79
2023/03/28 09:39:32;;;;;;;5.43;1.52;;;;;;;8.91;36.38;102301.63;5055157;28;20091;-80
2023/03/28 09:42:08;;;;;;;6.15;1.70;;;;;;;8.91;35.80;102302.50;5053775;28;20104;-78
2023/03/28 09:45:11;;;;;;;4.18;1.40;;;;;;;8.91;35.65;102302.50;5048224;28;20053;-79
2023/03/28 09:47:57;;;;;;;3.55;1.20;;;;;;;8.92;36.18;102306.09;5072176;28;20045;-80
2023/03/28 09:50:29;;;;;;;5.07;1.10;;;;;;;8.94;36.17;102305.03;5056773;28;20076;-79
2023/03/28 09:52:59;;;;;;;6.47;1.23;;;;;;;8.97;36.44;102299.41;5062881;28;20048;-79
2023/03/28 09:55:30;;;;;;;4.38;1.50;;;;;;;9.00;35.89;102301.94;5059136;28;20045;-79
2023/03/28 09:58:05;;;;;;;3.42;1.00;;;;;;;9.03;35.18;102296.31;5043461;28;20053;-80
2023/03/28 10:00:50;;;;;;;2.30;0.88;;;;;;;9.04;35.18;102298.09;5043724;28;20056;-80
2023/03/28 10:03:37;;;;;;;2.47;0.95;;;;;;;9.03;35.42;102288.13;5069558;28;20055;-78
2023/03/28 10:06:19;;;;;;;4.13;1.00;;;;;;;9.08;34.08;102286.00;5048712;28;20053;-80
2023/03/28 10:08:49;;;;;;;3.67;0.90;;;;;;;9.07;34.97;102295.19;5048442;28;20286;-81
2023/03/28 10:11:26;;;;;;;1.48;0.73;;;;;;;9.09;34.69;102290.50;5038296;28;20064;-80
2023/03/28 10:13:55;;;;;;;3.10;0.90;;;;;;;9.13;34.86;102293.94;5035159;28;20045;-78
2023/03/28 10:16:28;;;;;;;2.03;0.82;;;;;;;9.15;34.32;102280.19;5043546;28;20045;-80
2023/03/28 10:19:12;;;;;;;3.60;1.00;;;;;;;9.16;34.23;102282.84;5062107;28;20095;-81
2023/03/28 10:22:04;;;;;;;4.07;1.20;;;;;;;9.18;34.38;102289.06;5042209;28;20585;-79
2023/03/28 10:24:34;;;;;;;3.20;1.05;;;;;;;9.17;34.68;102281.84;5078820;28;20067;-81
2023/03/28 10:27:08;;;;;;;2.67;1.15;;;;;;;9.22;33.35;102276.13;5064440;28;20041;-79
2023/03/28 10:29:38;;;;;;;5.40;1.70;;;;;;;9.22;34.25;102270.66;5040406;28;20043;-81
2023/03/28 10:32:12;;;;;;;2.22;0.98;;;;;;;9.25;33.47;102270.47;5033740;28;20056;-81
2023/03/28 10:34:44;;;;;;;2.40;1.00;;;;;;;9.25;34.14;102265.88;5054353;28;20411;-81
2023/03/28 10:37:25;;;;;;;4.05;1.00;;;;;;;9.28;32.94;102262.09;5058201;28;20052;-79
2023/03/28 10:40:26;;;;;;;2.60;0.90;;;;;;;9.28;32.85;102262.09;5033168;28;20050;-79
2023/03/28 10:43:15;;;;;;;2.25;1.00;;;;;;;9.25;33.45;102260.41;5060163;28;20068;-81
2023/03/28 10:46:14;;;;;;;3.58;1.15;;;;;;;9.26;32.24;102253.09;5054833;28;20142;-81
2023/03/28 10:49:22;;;;;;;1.98;0.80;;;;;;;9.23;33.23;102253.31;5050004;28;20056;-81
2023/03/28 10:52:14;;;;;;;2.30;1.10;;;;;;;9.22;31.72;102246.97;5069082;28;20052;-81
2023/03/28 10:54:56;;;;;;;2.35;0.70;;;;;;;9.25;31.49;102248.59;5067502;23;20124;-84
2023/03/28 10:57:52;;;;;;;2.53;1.10;;;;;;;9.24;32.12;102241.41;4991131;28;20053;-81
2023/03/28 11:00:29;;;;;;;1.70;0.80;;;;;;;9.25;32.05;102245.88;4988051;28;20043;-80
2023/03/28 11:03:17;;;;;;;1.85;0.80;;;;;;;9.23;31.04;102234.19;5008169;28;20050;-81
2023/03/28 11:05:54;;;;;;;2.88;1.10;;;;;;;9.25;31.52;102234.94;5013192;28;20054;-79
2023/03/28 11:08:52;;;;;;;2.63;1.23;;;;;;;9.23;31.90;102223.25;4997105;28;20042;-81
2023/03/28 11:11:40;;;;;;;3.63;0.90;;;;;;;9.26;31.90;102223.94;4994259;28;20042;-80
2023/03/28 11:14:21;;;;;;;2.20;0.90;;;;;;;9.29;31.84;102222.88;4989207;28;20113;-82
2023/03/28 11:16:57;;;;;;;2.88;0.93;;;;;;;9.28;31.71;102205.59;5001230;28;20056;-81
2023/03/28 11:20:07;;;;;;;2.63;1.05;;;;;;;9.32;31.25;102215.38;5008185;28;20042;-80
2023/03/28 11:22:53;;;;;;;2.30;0.95;;;;;;;9.32;31.34;102201.72;4986933;28;20513;-80
2023/03/28 11:25:45;;;;;;;1.98;1.20;;;;;;;9.34;32.55;102201.59;4978673;28;20445;-80
2023/03/28 11:28:50;;;;;;;2.58;1.00;;;;;;;9.35;30.91;102208.84;4996250;28;20126;-81
2023/03/28 11:31:26;;;;;;;2.00;0.93;;;;;;;9.36;32.25;102180.53;4992104;28;20121;-80
2023/03/28 11:34:01;;;;;;;2.22;0.85;;;;;;;9.38;31.85;102173.13;4971652;28;20047;-80
2023/03/28 11:36:34;;;;;;;2.08;0.85;;;;;;;9.38;31.85;102168.59;4986086;28;20497;-79
2023/03/28 11:39:13;;;;;;;3.03;0.88;;;;;;;9.37;31.03;102166.78;4999289;28;20045;-80
2023/03/28 11:41:44;;;;;;;2.28;1.00;;;;;;;9.37;31.94;102172.25;4994070;28;20050;-80
2023/03/28 11:44:21;;;;;;;2.67;0.82;;;;;;;9.37;31.55;102160.44;4999888;28;20069;-80
2023/03/28 11:46:54;;;;;;;3.20;0.90;;;;;;;9.35;31.62;102162.38;4996650;28;20098;-80
2023/03/28 11:49:30;;;;;;;2.05;0.90;;;;;;;9.36;31.14;102153.22;4999095;28;20046;-80
2023/03/28 11:52:04;;;;;;;1.98;0.95;;;;;;;9.35;31.29;102156.91;4997851;28;20580;-81
2023/03/28 11:54:40;;;;;;;2.53;0.90;;;;;;;9.34;30.32;102142.38;4999681;28;20131;-81
2023/03/28 11:57:14;;;;;;;1.63;0.80;;;;;;;9.32;30.63;102144.34;5004083;28;20057;-80
2023/03/28 11:59:54;;;;;;;2.35;1.10;;;;;;;9.32;30.86;102133.44;4999743;28;20039;-80
2023/03/28 12:02:46;;;;;;;3.05;1.20;;;;;;;9.32;29.88;102133.44;4990806;28;20116;-81
2023/03/28 12:05:22;;;;;;;1.58;0.90;;;;;;;9.32;30.42;102127.09;5004433;28;20050;-80
2023/03/28 12:07:55;;;;;;;2.03;0.85;;;;;;;9.32;31.12;102127.09;5000549;28;20046;-82
2023/03/28 12:10:34;;;;;;;2.33;0.98;;;;;;;9.32;31.08;102119.78;4989174;28;20166;-81
2023/03/28 12:13:13;;;;;;;1.92;0.75;;;;;;;9.34;30.09;102120.53;4994448;28;20050;-80
2023/03/28 12:15:55;;;;;;;2.35;0.90;;;;;;;9.35;31.29;102122.28;4996501;28;20064;-82
2023/03/28 12:18:29;;;;;;;2.10;0.80;;;;;;;9.40;30.79;102116.59;4991706;28;20074;-83
2023/03/28 12:21:06;;;;;;;1.05;0.68;;;;;;;9.43;30.28;102114.53;4994062;28;20060;-82